sensor_id;sensor_type;location;lat;lon;timestamp;temperature;humidity
64111;DHT22;50401;48.188;11.566;2022-09-09T00:06:56;18.51;66.02
64111;DHT22;50401;48.188;11.566;2022-09-09T00:09:25;18.51;66.23
64111;DHT22;50401;48.188;11.566;2022-09-09T00:11:52;18.52;66.16
64111;DHT22;50401;48.188;11.566;2022-09-09T00:17:00;18.56;66.19
64111;DHT22;50401;48.188;11.566;2022-09-09T00:19:33;18.61;66.11
64111;DHT22;50401;48.188;11.566;2022-09-09T00:24:41;18.66;65.98
64111;DHT22;50401;48.188;11.566;2022-09-09T00:27:09;18.65;65.90
64111;DHT22;50401;48.188;11.566;2022-09-09T00:29:41;18.66;66.06
64111;DHT22;50401;48.188;11.566;2022-09-09T00:32:12;18.58;66.29
64111;DHT22;50401;48.188;11.566;2022-09-09T00:34:38;18.59;66.20
64111;DHT22;50401;48.188;11.566;2022-09-09T00:37:04;18.63;66.23
64111;DHT22;50401;48.188;11.566;2022-09-09T00:39:41;18.63;66.30
64111;DHT22;50401;48.188;11.566;2022-09-09T00:45:09;18.71;66.18
64111;DHT22;50401;48.188;11.566;2022-09-09T00:58:07;18.68;66.33
64111;DHT22;50401;48.188;11.566;2022-09-09T01:03:33;18.61;66.76
64111;DHT22;50401;48.188;11.566;2022-09-09T01:08:28;18.59;66.76
64111;DHT22;50401;48.188;11.566;2022-09-09T01:10:56;18.55;66.94
64111;DHT22;50401;48.188;11.566;2022-09-09T01:13:27;18.56;67.02
64111;DHT22;50401;48.188;11.566;2022-09-09T01:15:55;18.48;66.94
64111;DHT22;50401;48.188;11.566;2022-09-09T01:18:22;18.43;66.97
64111;DHT22;50401;48.188;11.566;2022-09-09T01:28:42;18.02;67.99
64111;DHT22;50401;48.188;11.566;2022-09-09T01:31:02;17.74;68.42
64111;DHT22;50401;48.188;11.566;2022-09-09T01:33:28;17.67;68.83
64111;DHT22;50401;48.188;11.566;2022-09-09T01:36:38;17.60;69.31
64111;DHT22;50401;48.188;11.566;2022-09-09T01:38:39;17.45;69.80
64111;DHT22;50401;48.188;11.566;2022-09-09T01:41:04;17.45;69.90
64111;DHT22;50401;48.188;11.566;2022-09-09T01:43:29;17.48;69.97
64111;DHT22;50401;48.188;11.566;2022-09-09T01:45:56;17.44;69.94
64111;DHT22;50401;48.188;11.566;2022-09-09T01:48:22;17.40;70.15
64111;DHT22;50401;48.188;11.566;2022-09-09T01:50:48;17.31;70.48
64111;DHT22;50401;48.188;11.566;2022-09-09T01:53:14;17.24;70.68
64111;DHT22;50401;48.188;11.566;2022-09-09T01:55:41;17.16;71.02
64111;DHT22;50401;48.188;11.566;2022-09-09T01:58:41;17.16;71.27
64111;DHT22;50401;48.188;11.566;2022-09-09T02:01:05;17.03;71.85
64111;DHT22;50401;48.188;11.566;2022-09-09T02:03:32;16.96;72.09
64111;DHT22;50401;48.188;11.566;2022-09-09T02:08:36;17.02;71.97
64111;DHT22;50401;48.188;11.566;2022-09-09T02:11:05;17.05;71.95
64111;DHT22;50401;48.188;11.566;2022-09-09T02:13:31;16.92;72.45
64111;DHT22;50401;48.188;11.566;2022-09-09T02:16:07;16.93;72.56
64111;DHT22;50401;48.188;11.566;2022-09-09T02:21:02;17.03;72.32
64111;DHT22;50401;48.188;11.566;2022-09-09T02:23:28;17.09;72.21
64111;DHT22;50401;48.188;11.566;2022-09-09T02:25:53;17.22;71.93
64111;DHT22;50401;48.188;11.566;2022-09-09T02:28:20;17.27;71.74
64111;DHT22;50401;48.188;11.566;2022-09-09T02:30:46;17.31;71.65
64111;DHT22;50401;48.188;11.566;2022-09-09T02:33:13;17.31;71.42
64111;DHT22;50401;48.188;11.566;2022-09-09T02:35:39;17.13;71.85
64111;DHT22;50401;48.188;11.566;2022-09-09T02:38:06;16.91;72.48
64111;DHT22;50401;48.188;11.566;2022-09-09T02:40:33;16.72;73.01
64111;DHT22;50401;48.188;11.566;2022-09-09T02:42:58;16.68;73.28
64111;DHT22;50401;48.188;11.566;2022-09-09T02:45:31;16.74;73.15
64111;DHT22;50401;48.188;11.566;2022-09-09T02:48:31;16.68;73.43
64111;DHT22;50401;48.188;11.566;2022-09-09T02:51:01;16.67;73.42
64111;DHT22;50401;48.188;11.566;2022-09-09T02:53:37;16.71;73.46
64111;DHT22;50401;48.188;11.566;2022-09-09T02:56:05;16.76;73.31
64111;DHT22;50401;48.188;11.566;2022-09-09T02:58:34;16.75;73.41
64111;DHT22;50401;48.188;11.566;2022-09-09T03:00:59;16.74;73.45
64111;DHT22;50401;48.188;11.566;2022-09-09T03:03:27;16.63;73.79
64111;DHT22;50401;48.188;11.566;2022-09-09T03:05:53;16.63;73.80
64111;DHT22;50401;48.188;11.566;2022-09-09T03:08:18;16.65;73.69
64111;DHT22;50401;48.188;11.566;2022-09-09T03:10:43;16.64;73.69
64111;DHT22;50401;48.188;11.566;2022-09-09T03:13:09;16.63;73.75
64111;DHT22;50401;48.188;11.566;2022-09-09T03:15:34;16.63;73.76
64111;DHT22;50401;48.188;11.566;2022-09-09T03:18:00;16.51;74.23
64111;DHT22;50401;48.188;11.566;2022-09-09T03:20:29;16.53;74.28
64111;DHT22;50401;48.188;11.566;2022-09-09T03:22:55;16.56;74.29
64111;DHT22;50401;48.188;11.566;2022-09-09T03:25:21;16.53;74.30
64111;DHT22;50401;48.188;11.566;2022-09-09T03:27:49;16.57;74.09
64111;DHT22;50401;48.188;11.566;2022-09-09T03:30:14;16.51;74.32
64111;DHT22;50401;48.188;11.566;2022-09-09T03:32:40;16.43;74.44
64111;DHT22;50401;48.188;11.566;2022-09-09T03:35:05;16.50;74.36
64111;DHT22;50401;48.188;11.566;2022-09-09T03:37:30;16.50;74.46
64111;DHT22;50401;48.188;11.566;2022-09-09T03:39:56;16.50;74.39
64111;DHT22;50401;48.188;11.566;2022-09-09T03:42:22;16.53;74.38
64111;DHT22;50401;48.188;11.566;2022-09-09T03:44:47;16.58;74.27
64111;DHT22;50401;48.188;11.566;2022-09-09T03:47:14;16.50;74.45
64111;DHT22;50401;48.188;11.566;2022-09-09T03:49:40;16.46;74.67
64111;DHT22;50401;48.188;11.566;2022-09-09T03:52:05;16.51;74.67
64111;DHT22;50401;48.188;11.566;2022-09-09T03:54:30;16.56;74.54
64111;DHT22;50401;48.188;11.566;2022-09-09T03:56:55;16.58;74.51
64111;DHT22;50401;48.188;11.566;2022-09-09T03:59:21;16.56;74.45
64111;DHT22;50401;48.188;11.566;2022-09-09T04:01:47;16.56;74.65
64111;DHT22;50401;48.188;11.566;2022-09-09T04:04:12;16.60;74.64
64111;DHT22;50401;48.188;11.566;2022-09-09T04:06:38;16.54;74.78
64111;DHT22;50401;48.188;11.566;2022-09-09T04:09:03;16.53;74.97
64111;DHT22;50401;48.188;11.566;2022-09-09T04:11:28;16.57;74.80
64111;DHT22;50401;48.188;11.566;2022-09-09T04:13:54;16.53;74.93
64111;DHT22;50401;48.188;11.566;2022-09-09T04:16:19;16.53;74.84
64111;DHT22;50401;48.188;11.566;2022-09-09T04:18:45;16.57;74.74
64111;DHT22;50401;48.188;11.566;2022-09-09T04:21:10;16.54;74.80
64111;DHT22;50401;48.188;11.566;2022-09-09T04:23:37;16.61;74.62
64111;DHT22;50401;48.188;11.566;2022-09-09T04:26:03;16.71;74.29
64111;DHT22;50401;48.188;11.566;2022-09-09T04:28:30;16.72;74.23
64111;DHT22;50401;48.188;11.566;2022-09-09T04:30:56;16.71;74.27
64111;DHT22;50401;48.188;11.566;2022-09-09T04:33:23;16.75;74.07
64111;DHT22;50401;48.188;11.566;2022-09-09T04:35:50;16.75;73.93
64111;DHT22;50401;48.188;11.566;2022-09-09T04:38:19;16.78;73.76
64111;DHT22;50401;48.188;11.566;2022-09-09T04:40:47;16.86;73.71
64111;DHT22;50401;48.188;11.566;2022-09-09T04:43:12;16.85;73.72
64111;DHT22;50401;48.188;11.566;2022-09-09T04:45:39;16.78;73.81
64111;DHT22;50401;48.188;11.566;2022-09-09T04:48:05;16.68;74.06
64111;DHT22;50401;48.188;11.566;2022-09-09T04:50:31;16.56;74.48
64111;DHT22;50401;48.188;11.566;2022-09-09T04:52:59;16.47;74.81
64111;DHT22;50401;48.188;11.566;2022-09-09T04:55:24;16.39;75.33
64111;DHT22;50401;48.188;11.566;2022-09-09T04:57:49;16.41;75.16
64111;DHT22;50401;48.188;11.566;2022-09-09T05:00:14;16.41;75.20
64111;DHT22;50401;48.188;11.566;2022-09-09T05:02:40;16.50;75.09
64111;DHT22;50401;48.188;11.566;2022-09-09T05:05:07;16.57;74.99
64111;DHT22;50401;48.188;11.566;2022-09-09T05:07:32;16.48;75.16
64111;DHT22;50401;48.188;11.566;2022-09-09T05:09:58;16.56;74.95
64111;DHT22;50401;48.188;11.566;2022-09-09T05:12:23;16.57;75.09
64111;DHT22;50401;48.188;11.566;2022-09-09T05:14:51;16.67;74.81
64111;DHT22;50401;48.188;11.566;2022-09-09T05:17:16;16.61;74.82
64111;DHT22;50401;48.188;11.566;2022-09-09T05:19:41;16.58;75.00
64111;DHT22;50401;48.188;11.566;2022-09-09T05:22:06;16.41;75.64
64111;DHT22;50401;48.188;11.566;2022-09-09T05:24:32;16.20;76.08
64111;DHT22;50401;48.188;11.566;2022-09-09T05:26:58;16.24;76.14
64111;DHT22;50401;48.188;11.566;2022-09-09T05:29:25;16.05;76.72
64111;DHT22;50401;48.188;11.566;2022-09-09T05:31:50;16.02;76.77
64111;DHT22;50401;48.188;11.566;2022-09-09T05:34:15;16.01;76.55
64111;DHT22;50401;48.188;11.566;2022-09-09T05:36:41;16.10;76.37
64111;DHT22;50401;48.188;11.566;2022-09-09T05:39:06;16.27;76.02
64111;DHT22;50401;48.188;11.566;2022-09-09T05:41:31;16.27;75.77
64111;DHT22;50401;48.188;11.566;2022-09-09T05:43:57;16.36;75.50
64111;DHT22;50401;48.188;11.566;2022-09-09T05:46:26;16.37;75.24
64111;DHT22;50401;48.188;11.566;2022-09-09T05:48:52;16.46;75.05
64111;DHT22;50401;48.188;11.566;2022-09-09T05:51:19;16.47;74.93
64111;DHT22;50401;48.188;11.566;2022-09-09T05:53:46;16.53;74.65
64111;DHT22;50401;48.188;11.566;2022-09-09T05:56:21;16.48;74.72
64111;DHT22;50401;48.188;11.566;2022-09-09T05:58:48;16.47;74.69
64111;DHT22;50401;48.188;11.566;2022-09-09T06:01:18;16.40;74.92
64111;DHT22;50401;48.188;11.566;2022-09-09T06:03:44;16.41;74.80
64111;DHT22;50401;48.188;11.566;2022-09-09T06:06:10;16.40;74.77
64111;DHT22;50401;48.188;11.566;2022-09-09T06:08:37;16.47;74.85
64111;DHT22;50401;48.188;11.566;2022-09-09T06:13:29;16.43;74.79
64111;DHT22;50401;48.188;11.566;2022-09-09T06:15:54;16.54;74.54
64111;DHT22;50401;48.188;11.566;2022-09-09T06:18:19;16.54;74.47
64111;DHT22;50401;48.188;11.566;2022-09-09T06:23:19;16.76;73.94
64111;DHT22;50401;48.188;11.566;2022-09-09T06:25:45;16.72;74.00
64111;DHT22;50401;48.188;11.566;2022-09-09T06:28:11;16.67;74.11
64111;DHT22;50401;48.188;11.566;2022-09-09T06:30:36;16.69;74.04
64111;DHT22;50401;48.188;11.566;2022-09-09T06:33:02;16.69;73.93
64111;DHT22;50401;48.188;11.566;2022-09-09T06:35:27;16.69;74.08
64111;DHT22;50401;48.188;11.566;2022-09-09T06:37:53;16.78;73.78
64111;DHT22;50401;48.188;11.566;2022-09-09T06:40:18;16.75;73.82
64111;DHT22;50401;48.188;11.566;2022-09-09T06:42:44;16.75;73.74
64111;DHT22;50401;48.188;11.566;2022-09-09T06:45:10;16.75;73.92
64111;DHT22;50401;48.188;11.566;2022-09-09T06:47:36;16.81;73.61
64111;DHT22;50401;48.188;11.566;2022-09-09T06:50:01;16.82;73.59
64111;DHT22;50401;48.188;11.566;2022-09-09T06:52:26;16.83;73.50
64111;DHT22;50401;48.188;11.566;2022-09-09T06:54:52;16.93;73.17
64111;DHT22;50401;48.188;11.566;2022-09-09T06:57:18;17.10;73.13
64111;DHT22;50401;48.188;11.566;2022-09-09T06:59:43;17.27;72.55
64111;DHT22;50401;48.188;11.566;2022-09-09T07:02:09;17.40;72.07
64111;DHT22;50401;48.188;11.566;2022-09-09T07:04:35;17.50;71.87
64111;DHT22;50401;48.188;11.566;2022-09-09T07:07:00;17.65;71.76
64111;DHT22;50401;48.188;11.566;2022-09-09T07:09:25;17.71;71.78
64111;DHT22;50401;48.188;11.566;2022-09-09T07:11:53;17.79;71.60
64111;DHT22;50401;48.188;11.566;2022-09-09T07:14:18;17.96;72.59
64111;DHT22;50401;48.188;11.566;2022-09-09T07:16:44;18.40;71.62
64111;DHT22;50401;48.188;11.566;2022-09-09T07:19:11;18.63;70.64
64111;DHT22;50401;48.188;11.566;2022-09-09T07:21:36;18.61;71.44
64111;DHT22;50401;48.188;11.566;2022-09-09T07:24:02;18.44;72.05
64111;DHT22;50401;48.188;11.566;2022-09-09T07:26:30;18.27;72.89
64111;DHT22;50401;48.188;11.566;2022-09-09T07:28:56;18.26;72.92
64111;DHT22;50401;48.188;11.566;2022-09-09T07:31:26;18.13;74.06
64111;DHT22;50401;48.188;11.566;2022-09-09T07:33:52;18.09;74.31
64111;DHT22;50401;48.188;11.566;2022-09-09T07:41:47;18.38;74.21
64111;DHT22;50401;48.188;11.566;2022-09-09T07:44:17;18.41;74.47
64111;DHT22;50401;48.188;11.566;2022-09-09T07:46:45;18.41;74.82
64111;DHT22;50401;48.188;11.566;2022-09-09T07:49:11;18.47;75.24
64111;DHT22;50401;48.188;11.566;2022-09-09T07:51:46;18.49;75.30
64111;DHT22;50401;48.188;11.566;2022-09-09T07:54:13;18.45;75.37
64111;DHT22;50401;48.188;11.566;2022-09-09T07:56:39;18.37;75.15
64111;DHT22;50401;48.188;11.566;2022-09-09T07:59:06;18.30;75.55
64111;DHT22;50401;48.188;11.566;2022-09-09T08:01:32;18.23;76.10
64111;DHT22;50401;48.188;11.566;2022-09-09T08:04:06;18.20;76.43
64111;DHT22;50401;48.188;11.566;2022-09-09T08:06:36;18.18;76.10
64111;DHT22;50401;48.188;11.566;2022-09-09T08:09:02;18.17;76.09
64111;DHT22;50401;48.188;11.566;2022-09-09T08:11:28;18.21;75.94
64111;DHT22;50401;48.188;11.566;2022-09-09T08:13:57;18.24;76.52
64111;DHT22;50401;48.188;11.566;2022-09-09T08:16:23;18.34;76.50
64111;DHT22;50401;48.188;11.566;2022-09-09T08:18:49;18.37;76.44
64111;DHT22;50401;48.188;11.566;2022-09-09T08:21:16;18.38;76.41
64111;DHT22;50401;48.188;11.566;2022-09-09T08:23:43;18.33;76.52
64111;DHT22;50401;48.188;11.566;2022-09-09T08:26:10;18.30;76.68
64111;DHT22;50401;48.188;11.566;2022-09-09T08:28:36;18.27;76.89
64111;DHT22;50401;48.188;11.566;2022-09-09T08:31:05;18.27;76.94
64111;DHT22;50401;48.188;11.566;2022-09-09T08:33:30;18.28;76.76
64111;DHT22;50401;48.188;11.566;2022-09-09T08:35:56;18.38;76.15
64111;DHT22;50401;48.188;11.566;2022-09-09T08:38:21;18.54;76.23
64111;DHT22;50401;48.188;11.566;2022-09-09T08:40:46;18.65;76.02
64111;DHT22;50401;48.188;11.566;2022-09-09T08:43:14;18.66;75.82
64111;DHT22;50401;48.188;11.566;2022-09-09T08:45:49;18.61;75.88
64111;DHT22;50401;48.188;11.566;2022-09-09T08:48:36;18.58;76.22
64111;DHT22;50401;48.188;11.566;2022-09-09T08:51:06;18.37;76.52
64111;DHT22;50401;48.188;11.566;2022-09-09T08:53:40;18.34;76.79
64111;DHT22;50401;48.188;11.566;2022-09-09T08:56:12;18.31;76.32
64111;DHT22;50401;48.188;11.566;2022-09-09T08:58:54;18.31;76.98
64111;DHT22;50401;48.188;11.566;2022-09-09T09:06:49;18.10;75.56
64111;DHT22;50401;48.188;11.566;2022-09-09T09:12:00;18.03;74.56
64111;DHT22;50401;48.188;11.566;2022-09-09T09:14:30;18.02;74.78
64111;DHT22;50401;48.188;11.566;2022-09-09T09:19:37;18.03;73.54
64111;DHT22;50401;48.188;11.566;2022-09-09T09:22:23;18.17;73.15
64111;DHT22;50401;48.188;11.566;2022-09-09T09:27:35;18.58;72.91
64111;DHT22;50401;48.188;11.566;2022-09-09T09:30:05;19.04;72.46
64111;DHT22;50401;48.188;11.566;2022-09-09T09:32:36;18.90;72.13
64111;DHT22;50401;48.188;11.566;2022-09-09T09:35:02;18.55;73.44
64111;DHT22;50401;48.188;11.566;2022-09-09T09:37:34;18.52;73.30
64111;DHT22;50401;48.188;11.566;2022-09-09T09:40:10;18.58;74.04
64111;DHT22;50401;48.188;11.566;2022-09-09T09:42:47;18.82;73.92
64111;DHT22;50401;48.188;11.566;2022-09-09T09:48:03;19.10;74.44
64111;DHT22;50401;48.188;11.566;2022-09-09T09:50:30;19.17;74.27
64111;DHT22;50401;48.188;11.566;2022-09-09T09:53:04;19.28;72.13
64111;DHT22;50401;48.188;11.566;2022-09-09T09:55:44;19.17;73.02
64111;DHT22;50401;48.188;11.566;2022-09-09T09:58:14;19.14;72.76
64111;DHT22;50401;48.188;11.566;2022-09-09T10:00:50;19.02;71.58
64111;DHT22;50401;48.188;11.566;2022-09-09T10:03:29;19.11;71.29
64111;DHT22;50401;48.188;11.566;2022-09-09T10:05:54;19.18;70.92
64111;DHT22;50401;48.188;11.566;2022-09-09T10:08:21;19.27;70.20
64111;DHT22;50401;48.188;11.566;2022-09-09T10:10:56;19.48;68.79
64111;DHT22;50401;48.188;11.566;2022-09-09T10:16:03;19.38;67.48
64111;DHT22;50401;48.188;11.566;2022-09-09T10:18:46;19.27;67.99
64111;DHT22;50401;48.188;11.566;2022-09-09T10:21:36;19.30;68.43
64111;DHT22;50401;48.188;11.566;2022-09-09T10:34:26;19.15;69.98
64111;DHT22;50401;48.188;11.566;2022-09-09T10:36:56;19.11;70.08
64111;DHT22;50401;48.188;11.566;2022-09-09T10:39:37;19.03;70.29
64111;DHT22;50401;48.188;11.566;2022-09-09T10:52:23;18.58;71.16
64111;DHT22;50401;48.188;11.566;2022-09-09T10:55:38;18.80;71.38
64111;DHT22;50401;48.188;11.566;2022-09-09T10:57:47;18.58;71.45
64111;DHT22;50401;48.188;11.566;2022-09-09T11:00:19;18.59;71.14
64111;DHT22;50401;48.188;11.566;2022-09-09T11:02:45;18.82;70.02
64111;DHT22;50401;48.188;11.566;2022-09-09T11:10:18;19.38;67.26
64111;DHT22;50401;48.188;11.566;2022-09-09T11:12:46;19.44;67.70
64111;DHT22;50401;48.188;11.566;2022-09-09T11:15:15;19.56;66.67
64111;DHT22;50401;48.188;11.566;2022-09-09T11:17:55;19.91;66.77
64111;DHT22;50401;48.188;11.566;2022-09-09T11:20:27;19.74;66.09
64111;DHT22;50401;48.188;11.566;2022-09-09T11:23:01;19.74;65.88
64111;DHT22;50401;48.188;11.566;2022-09-09T11:25:37;19.86;65.76
64111;DHT22;50401;48.188;11.566;2022-09-09T11:33:25;19.94;63.46
64111;DHT22;50401;48.188;11.566;2022-09-09T11:35:58;19.97;63.26
64111;DHT22;50401;48.188;11.566;2022-09-09T11:38:28;20.17;63.65
64111;DHT22;50401;48.188;11.566;2022-09-09T11:40:58;20.03;63.72
64111;DHT22;50401;48.188;11.566;2022-09-09T11:43:38;19.97;64.19
64111;DHT22;50401;48.188;11.566;2022-09-09T11:46:05;19.96;64.49
64111;DHT22;50401;48.188;11.566;2022-09-09T11:48:36;19.73;65.19
64111;DHT22;50401;48.188;11.566;2022-09-09T11:51:03;20.11;64.85
64111;DHT22;50401;48.188;11.566;2022-09-09T11:53:30;20.48;63.91
64111;DHT22;50401;48.188;11.566;2022-09-09T11:56:00;20.17;63.40
64111;DHT22;50401;48.188;11.566;2022-09-09T11:58:26;20.03;63.90
64111;DHT22;50401;48.188;11.566;2022-09-09T12:00:52;19.55;65.39
64111;DHT22;50401;48.188;11.566;2022-09-09T12:03:34;19.82;65.16
64111;DHT22;50401;48.188;11.566;2022-09-09T12:08:48;19.34;65.70
64111;DHT22;50401;48.188;11.566;2022-09-09T12:13:58;19.80;65.27
64111;DHT22;50401;48.188;11.566;2022-09-09T12:16:30;19.79;64.32
64111;DHT22;50401;48.188;11.566;2022-09-09T12:21:58;19.77;64.68
64111;DHT22;50401;48.188;11.566;2022-09-09T12:24:30;19.67;64.79
64111;DHT22;50401;48.188;11.566;2022-09-09T12:26:59;19.69;65.10
64111;DHT22;50401;48.188;11.566;2022-09-09T12:29:28;19.83;64.98
64111;DHT22;50401;48.188;11.566;2022-09-09T12:36:54;20.08;64.31
64111;DHT22;50401;48.188;11.566;2022-09-09T12:39:44;19.73;65.00
64111;DHT22;50401;48.188;11.566;2022-09-09T12:42:18;19.66;65.21
64111;DHT22;50401;48.188;11.566;2022-09-09T12:44:50;19.63;65.42
64111;DHT22;50401;48.188;11.566;2022-09-09T12:47:16;19.69;65.36
64111;DHT22;50401;48.188;11.566;2022-09-09T12:49:43;19.82;65.44
64111;DHT22;50401;48.188;11.566;2022-09-09T12:52:14;19.82;65.39
64111;DHT22;50401;48.188;11.566;2022-09-09T12:54:44;19.70;65.07
64111;DHT22;50401;48.188;11.566;2022-09-09T12:57:10;19.94;64.80
64111;DHT22;50401;48.188;11.566;2022-09-09T12:59:37;19.89;64.73
64111;DHT22;50401;48.188;11.566;2022-09-09T13:02:11;19.87;64.73
64111;DHT22;50401;48.188;11.566;2022-09-09T13:04:36;19.84;64.96
64111;DHT22;50401;48.188;11.566;2022-09-09T13:07:08;20.06;64.81
64111;DHT22;50401;48.188;11.566;2022-09-09T13:09:35;20.10;64.50
64111;DHT22;50401;48.188;11.566;2022-09-09T13:12:00;20.14;64.55
64111;DHT22;50401;48.188;11.566;2022-09-09T13:14:30;20.14;64.60
64111;DHT22;50401;48.188;11.566;2022-09-09T13:17:01;19.89;65.30
64111;DHT22;50401;48.188;11.566;2022-09-09T13:19:27;19.86;65.85
64111;DHT22;50401;48.188;11.566;2022-09-09T13:21:54;19.76;65.99
64111;DHT22;50401;48.188;11.566;2022-09-09T13:24:25;19.97;65.95
64111;DHT22;50401;48.188;11.566;2022-09-09T13:26:56;19.87;65.47
64111;DHT22;50401;48.188;11.566;2022-09-09T13:29:21;19.82;66.22
64111;DHT22;50401;48.188;11.566;2022-09-09T13:31:47;19.52;66.60
64111;DHT22;50401;48.188;11.566;2022-09-09T13:34:26;19.58;67.06
64111;DHT22;50401;48.188;11.566;2022-09-09T13:37:01;19.55;66.93
64111;DHT22;50401;48.188;11.566;2022-09-09T13:39:35;19.54;66.36
64111;DHT22;50401;48.188;11.566;2022-09-09T13:42:02;19.69;66.79
64111;DHT22;50401;48.188;11.566;2022-09-09T13:44:35;19.70;66.43
64111;DHT22;50401;48.188;11.566;2022-09-09T13:47:35;19.63;66.84
64111;DHT22;50401;48.188;11.566;2022-09-09T13:49:53;19.82;66.35
64111;DHT22;50401;48.188;11.566;2022-09-09T13:52:18;19.56;66.33
64111;DHT22;50401;48.188;11.566;2022-09-09T13:54:47;19.22;66.85
64111;DHT22;50401;48.188;11.566;2022-09-09T13:59:43;19.65;66.27
64111;DHT22;50401;48.188;11.566;2022-09-09T14:02:08;19.59;65.74
64111;DHT22;50401;48.188;11.566;2022-09-09T14:04:33;19.55;65.54
64111;DHT22;50401;48.188;11.566;2022-09-09T14:07:00;19.48;65.74
64111;DHT22;50401;48.188;11.566;2022-09-09T14:09:26;19.58;65.79
64111;DHT22;50401;48.188;11.566;2022-09-09T14:11:51;19.58;65.43
64111;DHT22;50401;48.188;11.566;2022-09-09T14:14:16;19.32;66.01
64111;DHT22;50401;48.188;11.566;2022-09-09T14:16:41;19.06;66.83
64111;DHT22;50401;48.188;11.566;2022-09-09T14:19:08;19.22;66.87
64111;DHT22;50401;48.188;11.566;2022-09-09T14:21:33;19.30;66.76
64111;DHT22;50401;48.188;11.566;2022-09-09T14:23:58;19.38;66.48
64111;DHT22;50401;48.188;11.566;2022-09-09T14:26:23;19.28;66.72
64111;DHT22;50401;48.188;11.566;2022-09-09T14:28:49;19.44;66.49
64111;DHT22;50401;48.188;11.566;2022-09-09T14:31:15;19.41;66.21
64111;DHT22;50401;48.188;11.566;2022-09-09T14:33:42;19.48;65.61
64111;DHT22;50401;48.188;11.566;2022-09-09T14:36:08;19.42;65.45
64111;DHT22;50401;48.188;11.566;2022-09-09T14:38:35;19.36;65.76
64111;DHT22;50401;48.188;11.566;2022-09-09T14:41:05;19.39;66.00
64111;DHT22;50401;48.188;11.566;2022-09-09T14:43:30;19.49;66.19
64111;DHT22;50401;48.188;11.566;2022-09-09T14:45:57;19.52;66.32
64111;DHT22;50401;48.188;11.566;2022-09-09T14:48:22;19.45;65.76
64111;DHT22;50401;48.188;11.566;2022-09-09T14:50:48;19.61;65.39
64111;DHT22;50401;48.188;11.566;2022-09-09T14:53:15;19.56;64.74
64111;DHT22;50401;48.188;11.566;2022-09-09T14:55:41;19.55;65.02
64111;DHT22;50401;48.188;11.566;2022-09-09T14:58:07;19.56;64.96
64111;DHT22;50401;48.188;11.566;2022-09-09T15:00:32;19.49;65.25
64111;DHT22;50401;48.188;11.566;2022-09-09T15:02:57;19.58;65.23
64111;DHT22;50401;48.188;11.566;2022-09-09T15:05:23;19.54;64.93
64111;DHT22;50401;48.188;11.566;2022-09-09T15:07:49;19.49;65.17
64111;DHT22;50401;48.188;11.566;2022-09-09T15:10:14;19.44;65.05
64111;DHT22;50401;48.188;11.566;2022-09-09T15:12:40;19.36;65.36
64111;DHT22;50401;48.188;11.566;2022-09-09T15:15:07;19.47;65.32
64111;DHT22;50401;48.188;11.566;2022-09-09T15:17:32;19.54;65.30
64111;DHT22;50401;48.188;11.566;2022-09-09T15:19:57;19.69;65.21
64111;DHT22;50401;48.188;11.566;2022-09-09T15:22:23;19.67;64.22
64111;DHT22;50401;48.188;11.566;2022-09-09T15:24:49;19.59;64.31
64111;DHT22;50401;48.188;11.566;2022-09-09T15:27:14;19.63;64.28
64111;DHT22;50401;48.188;11.566;2022-09-09T15:29:40;19.44;64.41
64111;DHT22;50401;48.188;11.566;2022-09-09T15:32:05;19.41;64.41
64111;DHT22;50401;48.188;11.566;2022-09-09T15:34:30;19.39;64.09
64111;DHT22;50401;48.188;11.566;2022-09-09T15:36:56;19.48;63.89
64111;DHT22;50401;48.188;11.566;2022-09-09T15:39:21;19.51;63.60
64111;DHT22;50401;48.188;11.566;2022-09-09T15:41:47;19.54;63.58
64111;DHT22;50401;48.188;11.566;2022-09-09T15:44:13;19.22;63.72
64111;DHT22;50401;48.188;11.566;2022-09-09T15:46:39;19.38;63.60
64111;DHT22;50401;48.188;11.566;2022-09-09T15:49:09;19.38;63.69
64111;DHT22;50401;48.188;11.566;2022-09-09T15:51:35;19.39;63.40
64111;DHT22;50401;48.188;11.566;2022-09-09T15:54:02;19.52;63.23
64111;DHT22;50401;48.188;11.566;2022-09-09T15:56:28;19.61;62.90
64111;DHT22;50401;48.188;11.566;2022-09-09T15:58:55;19.56;62.76
64111;DHT22;50401;48.188;11.566;2022-09-09T16:01:22;19.65;62.27
64111;DHT22;50401;48.188;11.566;2022-09-09T16:03:47;19.39;62.53
64111;DHT22;50401;48.188;11.566;2022-09-09T16:06:15;19.47;62.50
64111;DHT22;50401;48.188;11.566;2022-09-09T16:08:41;19.47;62.11
64111;DHT22;50401;48.188;11.566;2022-09-09T16:11:14;19.47;62.21
64111;DHT22;50401;48.188;11.566;2022-09-09T16:13:40;19.30;62.28
64111;DHT22;50401;48.188;11.566;2022-09-09T16:16:06;19.07;62.92
64111;DHT22;50401;48.188;11.566;2022-09-09T16:18:42;19.06;63.09
64111;DHT22;50401;48.188;11.566;2022-09-09T16:21:07;19.21;62.66
64111;DHT22;50401;48.188;11.566;2022-09-09T16:23:33;19.22;62.48
64111;DHT22;50401;48.188;11.566;2022-09-09T16:25:59;19.22;62.66
64111;DHT22;50401;48.188;11.566;2022-09-09T16:28:24;19.44;62.53
64111;DHT22;50401;48.188;11.566;2022-09-09T16:30:49;19.51;62.18
64111;DHT22;50401;48.188;11.566;2022-09-09T16:33:15;19.42;61.48
64111;DHT22;50401;48.188;11.566;2022-09-09T16:35:41;19.54;61.86
64111;DHT22;50401;48.188;11.566;2022-09-09T16:38:06;19.54;60.81
64111;DHT22;50401;48.188;11.566;2022-09-09T16:40:34;19.58;60.64
64111;DHT22;50401;48.188;11.566;2022-09-09T16:43:00;19.62;60.43
64111;DHT22;50401;48.188;11.566;2022-09-09T16:45:26;19.58;60.21
64111;DHT22;50401;48.188;11.566;2022-09-09T16:47:51;19.54;60.40
64111;DHT22;50401;48.188;11.566;2022-09-09T16:50:16;19.27;61.08
64111;DHT22;50401;48.188;11.566;2022-09-09T16:52:42;19.38;61.22
64111;DHT22;50401;48.188;11.566;2022-09-09T16:55:07;19.24;60.99
64111;DHT22;50401;48.188;11.566;2022-09-09T16:57:34;19.08;61.64
64111;DHT22;50401;48.188;11.566;2022-09-09T16:59:59;18.99;61.84
64111;DHT22;50401;48.188;11.566;2022-09-09T17:02:25;18.93;62.20
64111;DHT22;50401;48.188;11.566;2022-09-09T17:04:50;18.82;62.59
64111;DHT22;50401;48.188;11.566;2022-09-09T17:07:15;18.77;62.31
64111;DHT22;50401;48.188;11.566;2022-09-09T17:09:41;18.73;62.51
64111;DHT22;50401;48.188;11.566;2022-09-09T17:12:06;18.65;62.65
64111;DHT22;50401;48.188;11.566;2022-09-09T17:14:31;18.61;62.64
64111;DHT22;50401;48.188;11.566;2022-09-09T17:16:56;18.65;62.81
64111;DHT22;50401;48.188;11.566;2022-09-09T17:19:22;18.58;62.78